sensor_id;sensor_type;location;lat;lon;timestamp;pressure;altitude;pressure_sealevel;temperature;humidity
61086;BME280;46967;48.876;2.136;2023-01-28T00:02:22;102498.75;;;3.78;81.75
61086;BME280;46967;48.876;2.136;2023-01-28T00:04:47;102500.47;;;3.79;81.64
61086;BME280;46967;48.876;2.136;2023-01-28T00:07:13;102495.28;;;3.77;81.83
61086;BME280;46967;48.876;2.136;2023-01-28T00:09:38;102501.63;;;3.90;81.38
61086;BME280;46967;48.876;2.136;2023-01-28T00:12:04;102507.63;;;3.91;81.39
61086;BME280;46967;48.876;2.136;2023-01-28T00:14:30;102501.63;;;3.90;81.68
61086;BME280;46967;48.876;2.136;2023-01-28T00:16:55;102509.53;;;3.99;80.76
61086;BME280;46967;48.876;2.136;2023-01-28T00:19:20;102505.91;;;3.91;81.18
61086;BME280;46967;48.876;2.136;2023-01-28T00:21:46;102506.78;;;3.90;81.16
61086;BME280;46967;48.876;2.136;2023-01-28T00:24:11;102500.03;;;3.95;81.00
61086;BME280;46967;48.876;2.136;2023-01-28T00:26:36;102504.22;;;3.90;81.33
61086;BME280;46967;48.876;2.136;2023-01-28T00:29:02;102492.44;;;4.00;80.51
61086;BME280;46967;48.876;2.136;2023-01-28T00:31:27;102495.75;;;3.96;80.69
61086;BME280;46967;48.876;2.136;2023-01-28T00:33:54;102492.25;;;3.92;80.90
61086;BME280;46967;48.876;2.136;2023-01-28T00:36:21;102500.81;;;3.93;80.68
61086;BME280;46967;48.876;2.136;2023-01-28T00:38:51;102494.94;;;3.97;80.12
61086;BME280;46967;48.876;2.136;2023-01-28T00:41:18;102496.56;;;3.93;80.55
61086;BME280;46967;48.876;2.136;2023-01-28T00:43:47;102491.22;;;3.84;80.81
61086;BME280;46967;48.876;2.136;2023-01-28T00:46:13;102491.44;;;3.93;80.43
61086;BME280;46967;48.876;2.136;2023-01-28T00:48:40;102489.78;;;3.95;80.65
61086;BME280;46967;48.876;2.136;2023-01-28T00:51:07;102489.91;;;4.02;80.86
61086;BME280;46967;48.876;2.136;2023-01-28T00:53:33;102490.59;;;3.94;80.73
61086;BME280;46967;48.876;2.136;2023-01-28T00:56:00;102481.97;;;3.92;80.50
61086;BME280;46967;48.876;2.136;2023-01-28T00:58:26;102485.56;;;3.99;80.12
61086;BME280;46967;48.876;2.136;2023-01-28T01:00:51;102482.03;;;3.94;80.13
61086;BME280;46967;48.876;2.136;2023-01-28T01:03:18;102484.34;;;3.85;80.15
61086;BME280;46967;48.876;2.136;2023-01-28T01:05:44;102488.69;;;3.86;80.21
61086;BME280;46967;48.876;2.136;2023-01-28T01:08:09;102491.41;;;3.92;79.96
61086;BME280;46967;48.876;2.136;2023-01-28T01:10:36;102491.16;;;3.83;80.18
61086;BME280;46967;48.876;2.136;2023-01-28T01:13:02;102495.50;;;3.85;80.46
61086;BME280;46967;48.876;2.136;2023-01-28T01:15:28;102502.50;;;3.91;80.26
61086;BME280;46967;48.876;2.136;2023-01-28T01:17:53;102501.56;;;3.87;79.90
61086;BME280;46967;48.876;2.136;2023-01-28T01:20:22;102504.28;;;3.93;79.78
61086;BME280;46967;48.876;2.136;2023-01-28T01:22:47;102505.97;;;3.93;79.40
61086;BME280;46967;48.876;2.136;2023-01-28T01:25:14;102504.91;;;3.85;79.53
61086;BME280;46967;48.876;2.136;2023-01-28T01:27:41;102513.47;;;3.85;79.36
61086;BME280;46967;48.876;2.136;2023-01-28T01:30:07;102516.03;;;3.85;79.75
61086;BME280;46967;48.876;2.136;2023-01-28T01:32:33;102510.19;;;3.91;80.10
61086;BME280;46967;48.876;2.136;2023-01-28T01:35:03;102508.50;;;3.91;79.57
61086;BME280;46967;48.876;2.136;2023-01-28T01:37:31;102517.91;;;3.91;79.50
61086;BME280;46967;48.876;2.136;2023-01-28T01:39:56;102509.47;;;3.96;79.39
61086;BME280;46967;48.876;2.136;2023-01-28T01:42:23;102517.13;;;3.93;79.19
61086;BME280;46967;48.876;2.136;2023-01-28T01:47:43;102525.34;;;3.80;79.40
61086;BME280;46967;48.876;2.136;2023-01-28T01:50:20;102521.09;;;3.82;79.33
61086;BME280;46967;48.876;2.136;2023-01-28T01:52:50;102526.34;;;3.87;79.13
61086;BME280;46967;48.876;2.136;2023-01-28T01:55:20;102523.72;;;3.84;79.44
61086;BME280;46967;48.876;2.136;2023-01-28T01:57:48;102520.16;;;3.78;79.37
61086;BME280;46967;48.876;2.136;2023-01-28T02:00:16;102524.53;;;3.81;79.14
61086;BME280;46967;48.876;2.136;2023-01-28T02:02:46;102528.84;;;3.84;79.31
61086;BME280;46967;48.876;2.136;2023-01-28T02:05:15;102519.53;;;3.87;78.94
61086;BME280;46967;48.876;2.136;2023-01-28T02:07:42;102517.72;;;3.83;79.14
61086;BME280;46967;48.876;2.136;2023-01-28T02:10:08;102523.00;;;3.89;79.05
61086;BME280;46967;48.876;2.136;2023-01-28T02:12:40;102521.38;;;3.93;78.81
61086;BME280;46967;48.876;2.136;2023-01-28T02:15:10;102527.41;;;3.93;78.95
61086;BME280;46967;48.876;2.136;2023-01-28T02:17:36;102524.81;;;3.92;79.09
61086;BME280;46967;48.876;2.136;2023-01-28T02:20:07;102529.00;;;3.90;79.16
61086;BME280;46967;48.876;2.136;2023-01-28T02:28:15;102522.97;;;3.88;78.92
61086;BME280;46967;48.876;2.136;2023-01-28T02:33:40;102522.88;;;3.85;78.82
61086;BME280;46967;48.876;2.136;2023-01-28T02:38:57;102529.56;;;3.78;78.78
61086;BME280;46967;48.876;2.136;2023-01-28T02:41:30;102535.59;;;3.80;78.92
61086;BME280;46967;48.876;2.136;2023-01-28T02:44:00;102532.69;;;3.66;79.34
61086;BME280;46967;48.876;2.136;2023-01-28T02:49:15;102525.81;;;3.65;79.61
61086;BME280;46967;48.876;2.136;2023-01-28T02:52:01;102526.00;;;3.71;79.26
61086;BME280;46967;48.876;2.136;2023-01-28T02:57:13;102526.84;;;3.72;79.68
61086;BME280;46967;48.876;2.136;2023-01-28T02:59:53;102519.22;;;3.75;79.18
61086;BME280;46967;48.876;2.136;2023-01-28T03:07:45;102516.63;;;3.73;79.36
61086;BME280;46967;48.876;2.136;2023-01-28T03:10:13;102529.53;;;3.76;78.90
61086;BME280;46967;48.876;2.136;2023-01-28T03:12:42;102521.88;;;3.78;78.75
61086;BME280;46967;48.876;2.136;2023-01-28T03:15:32;102532.03;;;3.73;79.14
61086;BME280;46967;48.876;2.136;2023-01-28T03:18:26;102530.44;;;3.47;79.52
61086;BME280;46967;48.876;2.136;2023-01-28T03:27:08;102549.91;;;3.38;80.27
61086;BME280;46967;48.876;2.136;2023-01-28T03:29:56;102553.22;;;3.34;80.71
61086;BME280;46967;48.876;2.136;2023-01-28T03:32:42;102548.84;;;3.30;80.50
61086;BME280;46967;48.876;2.136;2023-01-28T03:35:30;102547.19;;;3.32;80.18
61086;BME280;46967;48.876;2.136;2023-01-28T03:38:16;102542.56;;;3.20;80.81
61086;BME280;46967;48.876;2.136;2023-01-28T03:40:58;102547.13;;;3.31;80.29
61086;BME280;46967;48.876;2.136;2023-01-28T03:43:27;102553.78;;;3.24;80.85
61086;BME280;46967;48.876;2.136;2023-01-28T03:45:52;102551.09;;;3.19;80.81
61086;BME280;46967;48.876;2.136;2023-01-28T03:48:21;102555.50;;;3.25;80.79
61086;BME280;46967;48.876;2.136;2023-01-28T03:50:47;102559.59;;;3.18;80.80
61086;BME280;46967;48.876;2.136;2023-01-28T03:53:13;102554.47;;;3.18;80.78
61086;BME280;46967;48.876;2.136;2023-01-28T03:55:40;102556.03;;;3.13;81.16
61086;BME280;46967;48.876;2.136;2023-01-28T03:58:06;102550.09;;;3.14;80.57
61086;BME280;46967;48.876;2.136;2023-01-28T04:00:31;102557.13;;;3.21;80.53
61086;BME280;46967;48.876;2.136;2023-01-28T04:02:57;102561.34;;;3.19;80.78
61086;BME280;46967;48.876;2.136;2023-01-28T04:05:24;102562.31;;;3.23;80.44
61086;BME280;46967;48.876;2.136;2023-01-28T04:07:53;102564.06;;;3.24;80.40
61086;BME280;46967;48.876;2.136;2023-01-28T04:10:19;102568.25;;;3.22;80.44
61086;BME280;46967;48.876;2.136;2023-01-28T04:12:44;102562.50;;;3.29;80.18
61086;BME280;46967;48.876;2.136;2023-01-28T04:15:09;102573.53;;;3.26;79.87
61086;BME280;46967;48.876;2.136;2023-01-28T04:17:45;102574.47;;;3.29;79.88
61086;BME280;46967;48.876;2.136;2023-01-28T04:20:11;102572.06;;;3.35;79.72
61086;BME280;46967;48.876;2.136;2023-01-28T04:22:37;102571.19;;;3.34;79.21
61086;BME280;46967;48.876;2.136;2023-01-28T04:25:03;102577.31;;;3.39;79.11
61086;BME280;46967;48.876;2.136;2023-01-28T04:27:28;102581.53;;;3.37;79.12
61086;BME280;46967;48.876;2.136;2023-01-28T04:29:53;102589.22;;;3.37;79.25
61086;BME280;46967;48.876;2.136;2023-01-28T04:32:19;102577.31;;;3.39;79.05
61086;BME280;46967;48.876;2.136;2023-01-28T04:34:44;102585.63;;;3.31;79.11
61086;BME280;46967;48.876;2.136;2023-01-28T04:37:09;102585.94;;;3.41;78.47
61086;BME280;46967;48.876;2.136;2023-01-28T04:39:34;102592.78;;;3.42;78.33
61086;BME280;46967;48.876;2.136;2023-01-28T04:42:00;102596.06;;;3.37;78.62
61086;BME280;46967;48.876;2.136;2023-01-28T04:44:25;102597.59;;;3.30;78.42
61086;BME280;46967;48.876;2.136;2023-01-28T04:46:50;102596.00;;;3.34;78.67
61086;BME280;46967;48.876;2.136;2023-01-28T04:49:16;102589.06;;;3.31;78.67
61086;BME280;46967;48.876;2.136;2023-01-28T04:51:41;102592.69;;;3.38;78.36
61086;BME280;46967;48.876;2.136;2023-01-28T04:54:07;102586.50;;;3.31;78.63
61086;BME280;46967;48.876;2.136;2023-01-28T04:56:32;102587.94;;;3.21;78.76
61086;BME280;46967;48.876;2.136;2023-01-28T04:58:57;102598.19;;;3.21;78.82
61086;BME280;46967;48.876;2.136;2023-01-28T05:01:23;102601.63;;;3.22;78.74
61086;BME280;46967;48.876;2.136;2023-01-28T05:03:49;102596.44;;;3.20;79.20
61086;BME280;46967;48.876;2.136;2023-01-28T05:06:15;102610.34;;;3.27;78.98
61086;BME280;46967;48.876;2.136;2023-01-28T05:08:40;102605.22;;;3.27;78.77
61086;BME280;46967;48.876;2.136;2023-01-28T05:11:05;102600.22;;;3.32;78.56
61086;BME280;46967;48.876;2.136;2023-01-28T05:13:31;102607.03;;;3.31;78.59
61086;BME280;46967;48.876;2.136;2023-01-28T05:15:56;102605.22;;;3.27;78.71
61086;BME280;46967;48.876;2.136;2023-01-28T05:18:21;102600.25;;;3.33;78.62
61086;BME280;46967;48.876;2.136;2023-01-28T05:20:47;102603.38;;;3.23;78.78
61086;BME280;46967;48.876;2.136;2023-01-28T05:23:12;102606.16;;;3.31;78.90
61086;BME280;46967;48.876;2.136;2023-01-28T05:25:37;102599.50;;;3.37;78.50
61086;BME280;46967;48.876;2.136;2023-01-28T05:28:03;102595.13;;;3.33;78.85
61086;BME280;46967;48.876;2.136;2023-01-28T05:30:28;102602.41;;;3.19;78.90
61086;BME280;46967;48.876;2.136;2023-01-28T05:32:55;102607.56;;;3.19;78.95
61086;BME280;46967;48.876;2.136;2023-01-28T05:35:21;102609.16;;;3.16;79.10
61086;BME280;46967;48.876;2.136;2023-01-28T05:37:46;102607.69;;;3.24;79.12
61086;BME280;46967;48.876;2.136;2023-01-28T05:40:12;102604.94;;;3.18;79.33
61086;BME280;46967;48.876;2.136;2023-01-28T05:42:37;102611.81;;;3.19;79.31
61086;BME280;46967;48.876;2.136;2023-01-28T05:45:03;102604.84;;;3.15;79.39
61086;BME280;46967;48.876;2.136;2023-01-28T05:47:28;102615.19;;;3.18;79.30
61086;BME280;46967;48.876;2.136;2023-01-28T05:49:54;102609.41;;;3.25;79.24
61086;BME280;46967;48.876;2.136;2023-01-28T05:52:19;102611.25;;;3.29;79.11
61086;BME280;46967;48.876;2.136;2023-01-28T05:54:44;102611.94;;;3.23;78.93
61086;BME280;46967;48.876;2.136;2023-01-28T05:57:10;102614.44;;;3.22;79.00
61086;BME280;46967;48.876;2.136;2023-01-28T05:59:35;102621.38;;;3.24;78.90
61086;BME280;46967;48.876;2.136;2023-01-28T06:02:01;102619.94;;;3.34;79.03
61086;BME280;46967;48.876;2.136;2023-01-28T06:04:26;102626.84;;;3.35;78.66
61086;BME280;46967;48.876;2.136;2023-01-28T06:06:51;102620.78;;;3.33;78.88
61086;BME280;46967;48.876;2.136;2023-01-28T06:09:17;102621.84;;;3.40;78.47
61086;BME280;46967;48.876;2.136;2023-01-28T06:11:42;102624.53;;;3.44;78.23
61086;BME280;46967;48.876;2.136;2023-01-28T06:14:09;102634.72;;;3.41;78.45
61086;BME280;46967;48.876;2.136;2023-01-28T06:16:34;102629.59;;;3.41;78.43
61086;BME280;46967;48.876;2.136;2023-01-28T06:18:59;102639.66;;;3.35;78.47
61086;BME280;46967;48.876;2.136;2023-01-28T06:21:25;102639.72;;;3.37;78.67
61086;BME280;46967;48.876;2.136;2023-01-28T06:23:50;102642.09;;;3.31;78.93
61086;BME280;46967;48.876;2.136;2023-01-28T06:26:16;102630.97;;;3.30;78.93
61086;BME280;46967;48.876;2.136;2023-01-28T06:28:41;102641.41;;;3.36;78.67
61086;BME280;46967;48.876;2.136;2023-01-28T06:31:06;102638.72;;;3.32;78.92
61086;BME280;46967;48.876;2.136;2023-01-28T06:33:32;102641.22;;;3.30;78.87
61086;BME280;46967;48.876;2.136;2023-01-28T06:35:57;102641.19;;;3.29;79.08
61086;BME280;46967;48.876;2.136;2023-01-28T06:38:22;102640.28;;;3.28;79.63
61086;BME280;46967;48.876;2.136;2023-01-28T06:40:52;102653.22;;;3.31;78.99
61086;BME280;46967;48.876;2.136;2023-01-28T06:43:20;102658.31;;;3.30;78.82
61086;BME280;46967;48.876;2.136;2023-01-28T06:45:45;102660.19;;;3.35;78.77
61086;BME280;46967;48.876;2.136;2023-01-28T06:48:10;102666.91;;;3.30;78.73
61086;BME280;46967;48.876;2.136;2023-01-28T06:50:36;102666.09;;;3.33;78.48
61086;BME280;46967;48.876;2.136;2023-01-28T06:53:02;102669.41;;;3.29;78.76
61086;BME280;46967;48.876;2.136;2023-01-28T06:55:27;102667.63;;;3.26;78.72
61086;BME280;46967;48.876;2.136;2023-01-28T06:57:52;102661.53;;;3.22;79.23
61086;BME280;46967;48.876;2.136;2023-01-28T07:00:18;102660.88;;;3.30;78.63
61086;BME280;46967;48.876;2.136;2023-01-28T07:02:43;102669.19;;;3.21;79.10
61086;BME280;46967;48.876;2.136;2023-01-28T07:05:09;102661.53;;;3.22;78.93
61086;BME280;46967;48.876;2.136;2023-01-28T07:07:35;102668.28;;;3.20;79.11
61086;BME280;46967;48.876;2.136;2023-01-28T07:10:01;102664.78;;;3.17;79.35
61086;BME280;46967;48.876;2.136;2023-01-28T07:12:26;102666.34;;;3.12;79.46
61086;BME280;46967;48.876;2.136;2023-01-28T07:14:51;102673.03;;;3.06;79.22
61086;BME280;46967;48.876;2.136;2023-01-28T07:17:16;102673.69;;;3.01;79.66
61086;BME280;46967;48.876;2.136;2023-01-28T07:19:42;102674.47;;;2.98;79.78
61086;BME280;46967;48.876;2.136;2023-01-28T07:22:07;102679.81;;;3.06;79.69
61086;BME280;46967;48.876;2.136;2023-01-28T07:24:32;102685.09;;;3.11;79.60
61086;BME280;46967;48.876;2.136;2023-01-28T07:26:59;102691.13;;;3.11;79.46
61086;BME280;46967;48.876;2.136;2023-01-28T07:29:24;102683.78;;;3.23;78.81
61086;BME280;46967;48.876;2.136;2023-01-28T07:31:50;102687.34;;;3.27;78.70
61086;BME280;46967;48.876;2.136;2023-01-28T07:34:15;102677.06;;;3.27;78.31
61086;BME280;46967;48.876;2.136;2023-01-28T07:36:41;102682.22;;;3.27;78.25
61086;BME280;46967;48.876;2.136;2023-01-28T07:39:06;102675.22;;;3.23;78.33
61086;BME280;46967;48.876;2.136;2023-01-28T07:41:32;102684.97;;;3.06;79.29
61086;BME280;46967;48.876;2.136;2023-01-28T07:43:57;102695.97;;;3.02;79.32
61086;BME280;46967;48.876;2.136;2023-01-28T07:46:23;102696.00;;;3.03;79.22
61086;BME280;46967;48.876;2.136;2023-01-28T07:48:48;102696.81;;;3.02;79.08
61086;BME280;46967;48.876;2.136;2023-01-28T07:51:13;102697.63;;;3.01;79.23
61086;BME280;46967;48.876;2.136;2023-01-28T07:53:39;102699.69;;;3.12;79.06
61086;BME280;46967;48.876;2.136;2023-01-28T07:56:04;102696.34;;;3.14;78.94
61086;BME280;46967;48.876;2.136;2023-01-28T07:58:30;102697.16;;;3.13;79.18
61086;BME280;46967;48.876;2.136;2023-01-28T08:00:59;102698.19;;;3.18;79.01
61086;BME280;46967;48.876;2.136;2023-01-28T08:03:24;102692.41;;;3.25;78.60
61086;BME280;46967;48.876;2.136;2023-01-28T08:05:52;102689.81;;;3.24;78.73
61086;BME280;46967;48.876;2.136;2023-01-28T08:08:19;102696.34;;;3.14;78.84
61086;BME280;46967;48.876;2.136;2023-01-28T08:10:44;102688.56;;;3.11;78.48
61086;BME280;46967;48.876;2.136;2023-01-28T08:13:10;102693.94;;;3.19;78.22
61086;BME280;46967;48.876;2.136;2023-01-28T08:15:36;102705.34;;;3.29;78.09
61086;BME280;46967;48.876;2.136;2023-01-28T08:18:03;102708.69;;;3.26;78.17
61086;BME280;46967;48.876;2.136;2023-01-28T08:20:29;102713.53;;;3.17;78.09
61086;BME280;46967;48.876;2.136;2023-01-28T08:23:06;102726.56;;;3.23;78.50
61086;BME280;46967;48.876;2.136;2023-01-28T08:25:32;102721.47;;;3.24;78.36
61086;BME280;46967;48.876;2.136;2023-01-28T08:27:57;102724.31;;;3.34;77.99
61086;BME280;46967;48.876;2.136;2023-01-28T08:30:23;102727.66;;;3.31;77.80
61086;BME280;46967;48.876;2.136;2023-01-28T08:32:48;102722.81;;;3.40;77.55
61086;BME280;46967;48.876;2.136;2023-01-28T08:35:13;102722.94;;;3.45;77.15
61086;BME280;46967;48.876;2.136;2023-01-28T08:37:39;102723.94;;;3.50;76.90
61086;BME280;46967;48.876;2.136;2023-01-28T08:40:04;102726.28;;;3.42;76.67
61086;BME280;46967;48.876;2.136;2023-01-28T08:42:30;102718.53;;;3.41;77.16
61086;BME280;46967;48.876;2.136;2023-01-28T08:44:55;102730.84;;;3.51;77.14
61086;BME280;46967;48.876;2.136;2023-01-28T08:47:21;102722.47;;;3.57;76.89
61086;BME280;46967;48.876;2.136;2023-01-28T08:49:46;102727.63;;;3.58;76.74
61086;BME280;46967;48.876;2.136;2023-01-28T08:52:11;102732.78;;;3.60;76.63
61086;BME280;46967;48.876;2.136;2023-01-28T08:54:37;102746.34;;;3.54;76.40
61086;BME280;46967;48.876;2.136;2023-01-28T08:57:02;102743.88;;;3.57;76.36
61086;BME280;46967;48.876;2.136;2023-01-28T08:59:28;102749.19;;;3.63;76.34
61086;BME280;46967;48.876;2.136;2023-01-28T09:01:53;102738.97;;;3.65;76.55
61086;BME280;46967;48.876;2.136;2023-01-28T09:04:18;102749.16;;;3.62;76.21
61086;BME280;46967;48.876;2.136;2023-01-28T09:06:44;102738.97;;;3.65;75.57
61086;BME280;46967;48.876;2.136;2023-01-28T09:09:09;102741.75;;;3.73;75.80
61086;BME280;46967;48.876;2.136;2023-01-28T09:11:34;102740.19;;;3.78;75.61
61086;BME280;46967;48.876;2.136;2023-01-28T09:14:00;102754.59;;;3.73;74.70
61086;BME280;46967;48.876;2.136;2023-01-28T09:16:25;102748.56;;;3.72;74.17
61086;BME280;46967;48.876;2.136;2023-01-28T09:18:51;102761.22;;;3.66;73.55
61086;BME280;46967;48.876;2.136;2023-01-28T09:21:16;102767.22;;;3.65;73.60
61086;BME280;46967;48.876;2.136;2023-01-28T09:23:42;102765.38;;;3.61;73.41
61086;BME280;46967;48.876;2.136;2023-01-28T09:26:07;102758.47;;;3.60;73.76
61086;BME280;46967;48.876;2.136;2023-01-28T09:28:33;102768.94;;;3.66;73.85
61086;BME280;46967;48.876;2.136;2023-01-28T09:31:07;102771.66;;;3.71;74.00
61086;BME280;46967;48.876;2.136;2023-01-28T09:33:33;102754.66;;;3.74;73.21
61086;BME280;46967;48.876;2.136;2023-01-28T09:36:01;102766.47;;;3.69;71.70
61086;BME280;46967;48.876;2.136;2023-01-28T09:38:28;102767.22;;;3.65;72.19
61086;BME280;46967;48.876;2.136;2023-01-28T09:40:54;102767.25;;;3.67;72.54
61086;BME280;46967;48.876;2.136;2023-01-28T09:45:51;102774.06;;;3.66;72.19
61086;BME280;46967;48.876;2.136;2023-01-28T09:48:21;102777.88;;;3.79;71.17
61086;BME280;46967;48.876;2.136;2023-01-28T09:50:51;102775.06;;;3.70;71.29
61086;BME280;46967;48.876;2.136;2023-01-28T09:53:32;102769.81;;;3.67;71.54
61086;BME280;46967;48.876;2.136;2023-01-28T09:56:05;102775.91;;;3.70;71.43
61086;BME280;46967;48.876;2.136;2023-01-28T09:58:32;102787.16;;;3.74;70.67
61086;BME280;46967;48.876;2.136;2023-01-28T10:06:49;102779.88;;;3.59;69.62
61086;BME280;46967;48.876;2.136;2023-01-28T10:09:34;102784.28;;;3.65;69.83
61086;BME280;46967;48.876;2.136;2023-01-28T10:18:00;102789.28;;;3.60;70.67
61086;BME280;46967;48.876;2.136;2023-01-28T10:20:36;102797.47;;;3.75;70.86
61086;BME280;46967;48.876;2.136;2023-01-28T10:25:42;102791.09;;;3.62;70.67
61086;BME280;46967;48.876;2.136;2023-01-28T10:28:38;102800.31;;;3.56;70.78
61086;BME280;46967;48.876;2.136;2023-01-28T10:31:11;102796.13;;;3.59;70.97
61086;BME280;46967;48.876;2.136;2023-01-28T10:33:38;102797.44;;;3.47;72.16
61086;BME280;46967;48.876;2.136;2023-01-28T10:36:05;102806.34;;;3.58;71.43
61086;BME280;46967;48.876;2.136;2023-01-28T10:38:31;102817.38;;;3.54;71.24
61086;BME280;46967;48.876;2.136;2023-01-28T10:41:00;102811.44;;;3.56;71.17
61086;BME280;46967;48.876;2.136;2023-01-28T10:43:30;102807.06;;;3.52;71.10
61086;BME280;46967;48.876;2.136;2023-01-28T10:48:37;102811.19;;;3.49;71.47
61086;BME280;46967;48.876;2.136;2023-01-28T10:51:07;102815.47;;;3.48;71.73
61086;BME280;46967;48.876;2.136;2023-01-28T10:53:37;102825.44;;;3.39;71.60
61086;BME280;46967;48.876;2.136;2023-01-28T10:56:04;102810.72;;;3.33;71.91
61086;BME280;46967;48.876;2.136;2023-01-28T10:58:34;102812.41;;;3.33;71.94
61086;BME280;46967;48.876;2.136;2023-01-28T11:01:03;102807.53;;;3.40;71.92
61086;BME280;46967;48.876;2.136;2023-01-28T11:03:29;102808.69;;;3.50;72.10
61086;BME280;46967;48.876;2.136;2023-01-28T11:05:56;102804.28;;;3.46;72.24
61086;BME280;46967;48.876;2.136;2023-01-28T11:08:24;102800.72;;;3.42;72.09
61086;BME280;46967;48.876;2.136;2023-01-28T11:10:51;102804.25;;;3.44;72.24
61086;BME280;46967;48.876;2.136;2023-01-28T11:13:22;102795.84;;;3.50;72.23
61086;BME280;46967;48.876;2.136;2023-01-28T11:16:03;102805.91;;;3.44;72.17
61086;BME280;46967;48.876;2.136;2023-01-28T11:18:32;102802.28;;;3.37;72.06
61086;BME280;46967;48.876;2.136;2023-01-28T11:21:05;102794.69;;;3.40;71.52
61086;BME280;46967;48.876;2.136;2023-01-28T11:23:34;102802.38;;;3.40;72.03
61086;BME280;46967;48.876;2.136;2023-01-28T11:26:08;102796.25;;;3.35;71.63
61086;BME280;46967;48.876;2.136;2023-01-28T11:28:42;102796.44;;;3.41;71.82
61086;BME280;46967;48.876;2.136;2023-01-28T11:31:10;102794.25;;;3.54;71.36
61086;BME280;46967;48.876;2.136;2023-01-28T11:36:20;102790.72;;;3.50;72.19
61086;BME280;46967;48.876;2.136;2023-01-28T11:38:52;102794.69;;;3.40;71.84
61086;BME280;46967;48.876;2.136;2023-01-28T11:41:22;102783.59;;;3.41;71.62
61086;BME280;46967;48.876;2.136;2023-01-28T11:43:50;102796.44;;;3.41;71.83
61086;BME280;46967;48.876;2.136;2023-01-28T12:05:24;102790.75;;;3.24;70.21
61086;BME280;46967;48.876;2.136;2023-01-28T12:08:00;102782.41;;;3.30;70.48
61086;BME280;46967;48.876;2.136;2023-01-28T12:10:40;102782.59;;;3.36;70.04
61086;BME280;46967;48.876;2.136;2023-01-28T12:16:16;102793.69;;;3.35;69.68
61086;BME280;46967;48.876;2.136;2023-01-28T12:24:37;102777.72;;;3.45;70.42
61086;BME280;46967;48.876;2.136;2023-01-28T12:35:55;102770.25;;;3.53;68.92
61086;BME280;46967;48.876;2.136;2023-01-28T12:41:17;102774.94;;;3.38;68.72
61086;BME280;46967;48.876;2.136;2023-01-28T12:43:59;102772.19;;;3.32;68.75
61086;BME280;46967;48.876;2.136;2023-01-28T12:49:12;102772.38;;;3.38;68.89
61086;BME280;46967;48.876;2.136;2023-01-28T12:52:20;102765.81;;;3.48;67.59
61086;BME280;46967;48.876;2.136;2023-01-28T12:55:03;102764.78;;;3.42;67.87
61086;BME280;46967;48.876;2.136;2023-01-28T12:57:36;102771.69;;;3.43;68.69
61086;BME280;46967;48.876;2.136;2023-01-28T13:02:55;102771.81;;;3.48;67.04
61086;BME280;46967;48.876;2.136;2023-01-28T13:05:30;102766.03;;;3.54;66.92
61086;BME280;46967;48.876;2.136;2023-01-28T13:08:10;102768.69;;;3.58;66.99
61086;BME280;46967;48.876;2.136;2023-01-28T13:10:41;102771.56;;;3.68;66.99
61086;BME280;46967;48.876;2.136;2023-01-28T13:13:14;102765.50;;;3.66;66.38
61086;BME280;46967;48.876;2.136;2023-01-28T13:15:42;102768.88;;;3.65;66.28
61086;BME280;46967;48.876;2.136;2023-01-28T13:21:16;102766.06;;;3.28;66.49
61086;BME280;46967;48.876;2.136;2023-01-28T13:28:44;102767.44;;;3.45;66.77
61086;BME280;46967;48.876;2.136;2023-01-28T13:31:12;102771.09;;;3.52;67.02
61086;BME280;46967;48.876;2.136;2023-01-28T13:36:24;102760.09;;;3.56;66.88
61086;BME280;46967;48.876;2.136;2023-01-28T13:46:43;102762.97;;;3.38;65.56
61086;BME280;46967;48.876;2.136;2023-01-28T13:49:15;102758.66;;;3.37;65.62
61086;BME280;46967;48.876;2.136;2023-01-28T13:51:58;102759.53;;;3.38;65.79
61086;BME280;46967;48.876;2.136;2023-01-28T13:54:27;102760.59;;;3.44;65.21
61086;BME280;46967;48.876;2.136;2023-01-28T13:57:03;102756.38;;;3.47;65.40
61086;BME280;46967;48.876;2.136;2023-01-28T13:59:53;102753.75;;;3.45;65.43
61086;BME280;46967;48.876;2.136;2023-01-28T14:05:37;102761.97;;;3.62;64.31
61086;BME280;46967;48.876;2.136;2023-01-28T14:13:53;102756.72;;;3.57;64.83
61086;BME280;46967;48.876;2.136;2023-01-28T14:16:46;102755.91;;;3.60;64.78
61086;BME280;46967;48.876;2.136;2023-01-28T14:19:20;102766.31;;;3.65;65.02
61086;BME280;46967;48.876;2.136;2023-01-28T14:21:49;102770.69;;;3.67;64.59
61086;BME280;46967;48.876;2.136;2023-01-28T14:24:16;102773.25;;;3.67;64.92
61086;BME280;46967;48.876;2.136;2023-01-28T14:29:36;102771.31;;;3.60;65.25
61086;BME280;46967;48.876;2.136;2023-01-28T14:32:16;102765.50;;;3.66;65.22
61086;BME280;46967;48.876;2.136;2023-01-28T14:34:42;102765.59;;;3.69;65.63
61086;BME280;46967;48.876;2.136;2023-01-28T14:37:38;102779.50;;;3.75;65.61
61086;BME280;46967;48.876;2.136;2023-01-28T14:40:11;102776.44;;;3.60;65.49
61086;BME280;46967;48.876;2.136;2023-01-28T14:42:44;102769.78;;;3.65;66.05
61086;BME280;46967;48.876;2.136;2023-01-28T14:48:00;102767.78;;;3.56;66.60
61086;BME280;46967;48.876;2.136;2023-01-28T14:50:42;102779.16;;;3.65;67.12
61086;BME280;46967;48.876;2.136;2023-01-28T14:56:30;102780.53;;;3.82;66.83
61086;BME280;46967;48.876;2.136;2023-01-28T15:01:43;102781.91;;;3.71;66.33
61086;BME280;46967;48.876;2.136;2023-01-28T15:06:50;102781.81;;;3.68;66.37
61086;BME280;46967;48.876;2.136;2023-01-28T15:09:15;102771.47;;;3.65;66.02
61086;BME280;46967;48.876;2.136;2023-01-28T15:11:42;102771.41;;;3.63;65.97
61086;BME280;46967;48.876;2.136;2023-01-28T15:14:29;102765.84;;;3.76;65.98
61086;BME280;46967;48.876;2.136;2023-01-28T15:16:55;102764.59;;;3.63;65.71
61086;BME280;46967;48.876;2.136;2023-01-28T15:19:26;102766.38;;;3.66;65.29
61086;BME280;46967;48.876;2.136;2023-01-28T15:21:58;102773.25;;;3.67;65.15
61086;BME280;46967;48.876;2.136;2023-01-28T15:24:24;102773.22;;;3.66;64.57
61086;BME280;46967;48.876;2.136;2023-01-28T15:26:50;102767.97;;;3.62;64.57
61086;BME280;46967;48.876;2.136;2023-01-28T15:29:24;102765.97;;;3.52;64.26